createdAt,value
2023-03-05T00:02:05.986Z,38.72
2023-03-05T00:04:33.386Z,34.90
2023-03-05T00:06:59.957Z,38.63
2023-03-05T00:09:26.425Z,36.80
2023-03-05T00:11:52.958Z,39.08
2023-03-05T00:14:19.451Z,35.90
2023-03-05T00:16:46.034Z,40.85
2023-03-05T00:19:12.518Z,42.05
2023-03-05T00:21:40.537Z,39.20
2023-03-05T00:24:10.635Z,45.03
2023-03-05T00:26:39.098Z,41.85
2023-03-05T00:29:06.098Z,41.15
2023-03-05T00:31:34.099Z,38.55
2023-03-05T00:34:06.196Z,35.05
2023-03-05T00:36:32.969Z,37.33
2023-03-05T00:38:59.481Z,37.17
2023-03-05T00:41:26.189Z,40.92
2023-03-05T00:43:52.733Z,35.67
2023-03-05T00:46:19.279Z,33.10
2023-03-05T00:48:45.780Z,40.72
2023-03-05T00:51:12.391Z,35.47
2023-03-05T00:53:38.973Z,40.78
2023-03-05T00:56:05.693Z,37.03
2023-03-05T00:58:32.548Z,35.95
2023-03-05T01:01:00.162Z,36.88
2023-03-05T01:03:26.709Z,33.83
2023-03-05T01:05:53.151Z,36.03
2023-03-05T01:08:19.893Z,37.25
2023-03-05T01:10:46.367Z,37.75
2023-03-05T01:13:12.849Z,36.10
2023-03-05T01:15:39.460Z,34.78
2023-03-05T01:18:05.981Z,35.50
2023-03-05T01:20:32.473Z,38.50
2023-03-05T01:23:01.920Z,34.45
2023-03-05T01:25:28.831Z,32.80
2023-03-05T01:27:55.304Z,36.35
2023-03-05T01:30:21.890Z,37.45
2023-03-05T01:32:48.440Z,40.60
2023-03-05T01:35:19.406Z,36.03
2023-03-05T01:37:46.025Z,38.97
2023-03-05T01:40:13.568Z,35.00
2023-03-05T01:42:40.027Z,36.42
2023-03-05T01:45:10.107Z,38.03
2023-03-05T01:47:37.198Z,37.42
2023-03-05T01:50:04.731Z,41.97
2023-03-05T01:52:32.614Z,41.65
2023-03-05T01:55:01.464Z,38.95
2023-03-05T01:57:30.495Z,39.17
2023-03-05T01:59:59.067Z,40.72
2023-03-05T02:02:28.264Z,42.08
2023-03-05T02:04:56.238Z,37.72
2023-03-05T02:07:23.350Z,36.45
2023-03-05T02:09:52.171Z,40.13
2023-03-05T02:12:18.617Z,39.65
2023-03-05T02:14:46.569Z,41.38
2023-03-05T02:17:16.513Z,40.33
2023-03-05T02:19:50.367Z,41.88
2023-03-05T02:22:17.773Z,36.22
2023-03-05T02:24:44.275Z,43.42
2023-03-05T02:27:12.636Z,37.60
2023-03-05T02:29:42.140Z,44.28
2023-03-05T02:32:09.634Z,39.65
2023-03-05T02:34:36.481Z,43.55
2023-03-05T02:37:04.709Z,40.05
2023-03-05T02:39:31.614Z,40.83
2023-03-05T02:41:58.092Z,45.38
2023-03-05T02:44:27.105Z,42.90
2023-03-05T02:46:53.585Z,42.33
2023-03-05T02:49:20.029Z,48.03
2023-03-05T02:51:46.482Z,43.03
2023-03-05T02:54:12.960Z,48.50
2023-03-05T02:56:39.689Z,46.95
2023-03-05T02:59:06.242Z,41.40
2023-03-05T03:01:32.715Z,43.70
2023-03-05T03:03:59.354Z,43.90
2023-03-05T03:06:26.013Z,43.90
2023-03-05T03:08:52.493Z,45.97
2023-03-05T03:11:19.004Z,48.42
2023-03-05T03:13:45.478Z,49.40
2023-03-05T03:16:12.847Z,46.88
2023-03-05T03:18:39.425Z,53.53
2023-03-05T03:21:06.896Z,46.53
2023-03-05T03:23:33.635Z,45.30
2023-03-05T03:26:00.169Z,50.03
2023-03-05T03:28:26.627Z,46.53
2023-03-05T03:30:53.200Z,47.15
2023-03-05T03:33:19.755Z,46.33
2023-03-05T03:35:46.722Z,48.13
2023-03-05T03:38:15.574Z,46.13
2023-03-05T03:40:42.292Z,49.17
2023-03-05T03:43:09.081Z,46.70
2023-03-05T03:45:35.627Z,46.95
2023-03-05T03:48:02.091Z,46.20
2023-03-05T03:50:28.575Z,49.38
2023-03-05T03:52:55.101Z,42.88
2023-03-05T03:55:21.582Z,45.00
2023-03-05T03:57:48.031Z,46.80
2023-03-05T04:00:17.070Z,45.72
2023-03-05T04:02:43.580Z,48.35
2023-03-05T04:05:12.465Z,49.30
2023-03-05T04:07:41.452Z,46.30
2023-03-05T04:10:08.294Z,47.75
2023-03-05T04:12:34.755Z,46.17
2023-03-05T04:15:01.278Z,44.75
2023-03-05T04:17:27.742Z,44.58
2023-03-05T04:19:54.250Z,51.95
2023-03-05T04:22:20.680Z,45.25
2023-03-05T04:24:47.178Z,44.67
2023-03-05T04:27:13.794Z,47.03
2023-03-05T04:29:40.210Z,39.97
2023-03-05T04:32:09.241Z,43.88
2023-03-05T04:34:37.477Z,48.03
2023-03-05T04:37:03.965Z,43.70
2023-03-05T04:39:30.443Z,49.50
2023-03-05T04:41:56.922Z,46.28
2023-03-05T04:44:25.251Z,42.80
2023-03-05T04:46:51.963Z,43.20
2023-03-05T04:49:18.447Z,46.42
2023-03-05T04:51:44.861Z,43.10
2023-03-05T04:54:11.232Z,43.45
2023-03-05T04:56:37.660Z,42.85
2023-03-05T04:59:04.089Z,42.20
2023-03-05T05:01:30.553Z,43.15
2023-03-05T05:03:57.065Z,42.25
2023-03-05T05:06:23.516Z,44.83
2023-03-05T05:08:49.916Z,42.10
2023-03-05T05:11:16.336Z,43.08
2023-03-05T05:13:42.703Z,46.30
2023-03-05T05:16:09.194Z,41.30
2023-03-05T05:18:35.764Z,45.80
2023-03-05T05:21:02.117Z,42.78
2023-03-05T05:23:28.575Z,45.33
2023-03-05T05:26:01.732Z,42.78
2023-03-05T05:28:28.420Z,42.78
2023-03-05T05:30:55.222Z,41.47
2023-03-05T05:33:22.095Z,44.15
2023-03-05T05:35:48.695Z,43.15
2023-03-05T05:38:15.073Z,41.17
2023-03-05T05:40:41.756Z,47.70
2023-03-05T05:43:08.688Z,42.63
2023-03-05T05:45:37.676Z,50.63
2023-03-05T05:48:04.134Z,42.45
2023-03-05T05:50:30.494Z,43.50
2023-03-05T05:52:56.891Z,41.42
2023-03-05T05:55:25.643Z,44.38
2023-03-05T05:57:51.992Z,40.85
2023-03-05T06:00:18.591Z,43.63
2023-03-05T06:02:45.224Z,44.90
2023-03-05T06:05:12.769Z,45.90
2023-03-05T06:07:39.153Z,41.28
2023-03-05T06:10:05.840Z,45.40
2023-03-05T06:12:32.203Z,46.42
2023-03-05T06:14:58.696Z,43.08
2023-03-05T06:17:30.677Z,46.72
2023-03-05T06:19:58.287Z,46.38
2023-03-05T06:22:24.684Z,41.42
2023-03-05T06:24:51.314Z,41.25
2023-03-05T06:27:17.680Z,47.08
2023-03-05T06:29:44.115Z,48.05
2023-03-05T06:32:10.920Z,44.78
2023-03-05T06:34:37.321Z,41.22
2023-03-05T06:37:03.941Z,45.05
2023-03-05T06:39:31.555Z,45.53
2023-03-05T06:41:58.082Z,44.15
2023-03-05T06:44:25.666Z,43.47
2023-03-05T06:46:52.147Z,42.78
2023-03-05T06:49:18.555Z,44.35
2023-03-05T06:51:44.985Z,46.22
2023-03-05T06:54:13.333Z,43.65
2023-03-05T06:56:40.769Z,45.15
2023-03-05T06:59:07.311Z,48.97
2023-03-05T07:01:34.087Z,44.70
2023-03-05T07:04:02.899Z,47.65
2023-03-05T07:06:31.464Z,44.30
2023-03-05T07:08:58.408Z,47.55
2023-03-05T07:11:25.725Z,46.15
2023-03-05T07:13:52.176Z,86.22
2023-03-05T07:16:20.452Z,110.95
2023-03-05T07:18:47.224Z,92.25
2023-03-05T07:21:21.327Z,124.45
2023-03-05T07:23:47.807Z,116.32
2023-03-05T07:26:14.688Z,97.93
2023-03-05T07:28:41.098Z,65.45
2023-03-05T07:31:09.027Z,59.13
2023-03-05T07:33:37.160Z,56.90
2023-03-05T07:36:04.810Z,47.90
2023-03-05T07:38:31.811Z,48.85
2023-03-05T07:41:01.906Z,50.40
2023-03-05T07:43:28.249Z,60.58
2023-03-05T07:45:54.657Z,52.13
2023-03-05T07:48:21.173Z,58.72
2023-03-05T07:50:48.232Z,45.38
2023-03-05T07:53:15.102Z,51.00
2023-03-05T07:55:47.702Z,45.97
2023-03-05T07:58:14.686Z,45.20
2023-03-05T08:00:41.299Z,44.33
2023-03-05T08:03:07.820Z,50.63
2023-03-05T08:05:34.211Z,46.80
2023-03-05T08:08:00.630Z,48.15
2023-03-05T08:10:27.017Z,46.58
2023-03-05T08:12:53.681Z,44.45
2023-03-05T08:15:20.040Z,46.20
2023-03-05T08:17:46.470Z,49.70
2023-03-05T08:20:13.145Z,52.22
2023-03-05T08:22:39.608Z,51.50
2023-03-05T08:25:06.540Z,47.35
2023-03-05T08:27:33.234Z,48.28
2023-03-05T08:30:01.090Z,48.63
2023-03-05T08:32:27.503Z,46.85
2023-03-05T08:34:57.828Z,43.15
2023-03-05T08:37:24.767Z,48.97
2023-03-05T08:39:51.161Z,51.83
2023-03-05T08:42:19.960Z,47.38
2023-03-05T08:44:46.451Z,49.83
2023-03-05T08:47:12.929Z,47.85
2023-03-05T08:49:39.349Z,49.90
2023-03-05T08:52:06.155Z,53.22
2023-03-05T08:54:33.358Z,45.75
2023-03-05T08:57:01.925Z,44.10
2023-03-05T08:59:28.472Z,44.03
2023-03-05T09:01:54.907Z,47.83
2023-03-05T09:04:21.357Z,46.92
2023-03-05T09:06:47.798Z,50.35
2023-03-05T09:09:14.257Z,44.78
2023-03-05T09:11:40.682Z,48.97
2023-03-05T09:14:07.267Z,47.45
2023-03-05T09:16:33.961Z,45.83
2023-03-05T09:19:00.412Z,44.10
2023-03-05T09:21:26.843Z,42.78
2023-03-05T09:23:53.258Z,50.03
2023-03-05T09:26:20.201Z,42.53
2023-03-05T09:28:46.727Z,46.65
2023-03-05T09:31:13.204Z,45.63
2023-03-05T09:33:40.075Z,52.75
2023-03-05T09:36:15.907Z,44.72
2023-03-05T09:38:42.348Z,41.85
2023-03-05T09:41:17.334Z,44.22
2023-03-05T09:43:49.733Z,42.28
2023-03-05T09:46:36.447Z,46.42
2023-03-05T09:49:18.631Z,38.33
2023-03-05T09:51:47.926Z,41.42
2023-03-05T09:54:19.946Z,43.72
2023-03-05T09:56:52.660Z,42.55
2023-03-05T09:59:28.571Z,38.17
2023-03-05T10:02:01.436Z,40.63
2023-03-05T10:04:30.877Z,39.97
2023-03-05T10:07:08.723Z,39.35
2023-03-05T10:09:36.960Z,36.17
2023-03-05T10:12:05.912Z,42.38
2023-03-05T10:14:33.952Z,39.13
2023-03-05T10:17:15.737Z,38.63
2023-03-05T10:20:11.754Z,36.83
2023-03-05T10:22:38.108Z,38.53
2023-03-05T10:25:14.701Z,41.95
2023-03-05T10:27:46.644Z,36.60
2023-03-05T10:30:22.335Z,35.63
2023-03-05T10:32:55.037Z,35.72
2023-03-05T10:35:33.878Z,37.45
2023-03-05T10:38:24.084Z,38.25
2023-03-05T10:40:57.913Z,40.35
2023-03-05T10:43:27.283Z,34.95
2023-03-05T10:45:54.445Z,37.00
2023-03-05T10:48:39.409Z,33.55
2023-03-05T10:51:15.534Z,35.50
2023-03-05T10:53:50.058Z,42.95
2023-03-05T10:56:18.798Z,33.30
2023-03-05T10:58:45.215Z,33.33
2023-03-05T11:01:12.230Z,34.67
2023-03-05T11:03:57.486Z,33.95
2023-03-05T11:06:27.004Z,35.55
2023-03-05T11:08:53.562Z,37.83
2023-03-05T11:11:21.076Z,36.17
2023-03-05T11:14:13.786Z,32.20
2023-03-05T11:16:47.835Z,38.40
2023-03-05T11:19:14.811Z,31.45
2023-03-05T11:21:42.271Z,35.25
2023-03-05T11:24:14.508Z,34.70
2023-03-05T11:26:49.548Z,32.90
2023-03-05T11:29:19.955Z,36.90
2023-03-05T11:31:46.652Z,32.13
2023-03-05T11:34:19.257Z,33.35
2023-03-05T11:36:55.546Z,28.40
2023-03-05T11:39:23.560Z,28.42
2023-03-05T11:41:58.259Z,31.17
2023-03-05T11:44:26.469Z,30.08
2023-03-05T11:46:56.197Z,27.33
2023-03-05T11:49:28.130Z,29.02
2023-03-05T11:52:08.277Z,30.00
2023-03-05T11:55:04.495Z,29.73
2023-03-05T11:57:54.330Z,32.05
2023-03-05T12:00:24.758Z,29.58
2023-03-05T12:02:55.156Z,31.10
2023-03-05T12:05:21.795Z,30.23
2023-03-05T12:07:53.445Z,27.95
2023-03-05T12:10:20.873Z,29.15
2023-03-05T12:13:06.620Z,29.70
2023-03-05T12:15:38.907Z,27.95
2023-03-05T12:18:24.042Z,31.33
2023-03-05T12:20:56.806Z,26.65
2023-03-05T12:23:23.516Z,28.85
2023-03-05T12:25:53.489Z,25.15
2023-03-05T12:28:29.046Z,27.73
2023-03-05T12:30:56.722Z,25.10
2023-03-05T12:33:30.976Z,28.15
2023-03-05T12:36:17.760Z,25.08
2023-03-05T12:38:45.097Z,22.23
2023-03-05T12:41:28.096Z,21.83
2023-03-05T12:44:06.900Z,27.80
2023-03-05T12:46:40.021Z,24.08
2023-03-05T12:49:27.016Z,22.48
2023-03-05T12:51:54.704Z,19.00
2023-03-05T12:54:40.522Z,21.35
2023-03-05T12:57:19.513Z,20.58
2023-03-05T12:59:48.941Z,25.10
2023-03-05T13:02:47.963Z,22.23
2023-03-05T13:05:18.476Z,21.45
2023-03-05T13:07:44.931Z,23.65
2023-03-05T13:10:21.911Z,23.55
2023-03-05T13:12:50.104Z,25.92
2023-03-05T13:15:16.889Z,19.55
2023-03-05T13:17:55.618Z,18.15
2023-03-05T13:20:27.428Z,22.02
2023-03-05T13:23:04.021Z,23.00
2023-03-05T13:25:30.444Z,22.15
2023-03-05T13:28:23.298Z,21.77
2023-03-05T13:30:52.755Z,25.48
2023-03-05T13:33:22.645Z,24.35
2023-03-05T13:35:49.163Z,22.48
2023-03-05T13:38:24.751Z,23.73
2023-03-05T13:41:01.002Z,21.75
2023-03-05T13:43:27.400Z,23.85
2023-03-05T13:45:56.712Z,24.65
2023-03-05T13:48:23.427Z,23.48
2023-03-05T13:50:57.038Z,22.80
2023-03-05T13:53:30.658Z,25.33
2023-03-05T13:55:58.585Z,22.27
2023-03-05T13:58:49.606Z,19.40
2023-03-05T14:01:22.209Z,24.48
2023-03-05T14:03:49.850Z,28.30
2023-03-05T14:06:18.991Z,28.73
2023-03-05T14:08:49.778Z,27.60
2023-03-05T14:11:17.457Z,28.50
2023-03-05T14:13:44.743Z,28.10
2023-03-05T14:16:15.769Z,33.92
2023-03-05T14:18:55.966Z,31.05
2023-03-05T14:21:22.595Z,33.10
2023-03-05T14:23:52.774Z,36.40
2023-03-05T14:26:22.539Z,30.88
2023-03-05T14:29:02.637Z,36.05
2023-03-05T14:31:30.486Z,35.85
2023-03-05T14:34:06.637Z,33.08
2023-03-05T14:36:33.913Z,31.45
2023-03-05T14:39:01.050Z,28.08
2023-03-05T14:41:40.966Z,32.13
2023-03-05T14:44:12.143Z,31.02
2023-03-05T14:46:38.770Z,37.40
2023-03-05T14:49:05.195Z,34.63
2023-03-05T14:51:33.579Z,32.38
2023-03-05T14:53:59.980Z,30.35
2023-03-05T14:56:30.224Z,31.73
2023-03-05T14:58:58.756Z,29.27
2023-03-05T15:01:25.662Z,31.73
2023-03-05T15:03:52.272Z,28.77
2023-03-05T15:06:25.570Z,32.92
2023-03-05T15:08:52.962Z,31.50
2023-03-05T15:11:19.383Z,29.90
2023-03-05T15:13:45.842Z,32.78
2023-03-05T15:16:14.978Z,30.55
2023-03-05T15:18:41.535Z,31.88
2023-03-05T15:21:07.930Z,33.40
2023-03-05T15:23:38.095Z,31.27
2023-03-05T15:26:06.401Z,32.90
2023-03-05T15:28:35.072Z,28.90
2023-03-05T15:31:01.989Z,32.55
2023-03-05T15:33:28.851Z,34.80
2023-03-05T15:35:57.735Z,33.20
2023-03-05T15:38:24.455Z,32.03
2023-03-05T15:40:53.564Z,31.98
2023-03-05T15:43:20.178Z,33.92
2023-03-05T15:45:46.625Z,37.80
2023-03-05T15:48:13.207Z,30.83
2023-03-05T15:50:42.792Z,35.50
2023-03-05T15:53:09.984Z,43.60
2023-03-05T15:55:43.417Z,44.72
2023-03-05T15:58:09.872Z,30.38
2023-03-05T16:00:37.187Z,34.78
2023-03-05T16:03:04.404Z,31.85
2023-03-05T16:05:31.012Z,29.77
2023-03-05T16:07:59.275Z,33.05
2023-03-05T16:10:26.701Z,28.45
2023-03-05T16:12:55.529Z,32.88
2023-03-05T16:15:22.243Z,27.60
2023-03-05T16:17:54.084Z,30.05
2023-03-05T16:20:20.927Z,32.20
2023-03-05T16:22:47.492Z,28.80
2023-03-05T16:25:13.854Z,33.53
2023-03-05T16:27:42.757Z,31.05
2023-03-05T16:30:09.526Z,31.63
2023-03-05T16:32:36.916Z,30.75
2023-03-05T16:35:03.590Z,35.83
2023-03-05T16:37:29.997Z,29.40
2023-03-05T16:39:59.482Z,29.85
2023-03-05T16:42:25.962Z,32.22
2023-03-05T16:44:52.762Z,31.33
2023-03-05T16:47:19.129Z,31.85
2023-03-05T16:49:45.573Z,28.48
2023-03-05T16:52:18.726Z,70.15
2023-03-05T16:54:46.686Z,69.22
2023-03-05T16:57:15.798Z,53.05
2023-03-05T16:59:43.745Z,31.67
2023-03-05T17:02:12.659Z,34.88
2023-03-05T17:04:41.524Z,31.30
2023-03-05T17:07:08.089Z,30.77
2023-03-05T17:09:35.045Z,29.02
2023-03-05T17:12:01.548Z,31.50
2023-03-05T17:14:28.313Z,25.08
2023-03-05T17:16:57.143Z,26.50
2023-03-05T17:19:23.585Z,26.83
2023-03-05T17:21:52.130Z,23.20
2023-03-05T17:24:20.844Z,26.00
2023-03-05T17:26:49.253Z,27.15
2023-03-05T17:29:15.998Z,28.52
2023-03-05T17:31:42.696Z,26.25
2023-03-05T17:34:10.089Z,24.17
2023-03-05T17:36:36.585Z,25.52
2023-03-05T17:39:03.158Z,23.33
2023-03-05T17:41:29.865Z,21.40
2023-03-05T17:43:56.236Z,24.65
2023-03-05T17:46:22.670Z,24.48
2023-03-05T17:48:49.132Z,29.35
2023-03-05T17:51:16.783Z,27.05
2023-03-05T17:53:43.663Z,26.15
2023-03-05T17:56:11.495Z,25.30
2023-03-05T17:58:38.074Z,23.73
2023-03-05T18:01:05.602Z,23.35
2023-03-05T18:03:32.197Z,20.38
2023-03-05T18:05:58.810Z,21.55
2023-03-05T18:08:27.873Z,24.40
2023-03-05T18:10:54.459Z,24.17
2023-03-05T18:13:20.863Z,25.63
2023-03-05T18:15:47.808Z,27.83
2023-03-05T18:18:15.430Z,32.75
2023-03-05T18:20:44.226Z,32.67
2023-03-05T18:23:13.050Z,36.67
2023-03-05T18:25:39.506Z,31.48
2023-03-05T18:28:09.717Z,36.25
2023-03-05T18:30:36.732Z,31.95
2023-03-05T18:33:03.811Z,29.83
2023-03-05T18:35:30.661Z,27.08
2023-03-05T18:37:59.532Z,29.00
2023-03-05T18:40:27.350Z,25.58
2023-03-05T18:42:54.162Z,22.65
2023-03-05T18:45:21.620Z,23.50
2023-03-05T18:47:49.079Z,22.67
2023-03-05T18:50:16.826Z,25.20
2023-03-05T18:52:43.393Z,26.50
2023-03-05T18:55:17.456Z,25.45
2023-03-05T18:57:44.021Z,27.55
2023-03-05T19:00:14.711Z,26.20
2023-03-05T19:02:41.228Z,24.33
2023-03-05T19:05:07.875Z,23.17
2023-03-05T19:07:35.275Z,29.13
2023-03-05T19:10:07.391Z,21.83
2023-03-05T19:12:45.273Z,26.42
2023-03-05T19:15:12.980Z,28.02
2023-03-05T19:17:39.441Z,29.02
2023-03-05T19:20:07.841Z,27.70
2023-03-05T19:22:35.020Z,28.73
2023-03-05T19:25:01.845Z,26.73
2023-03-05T19:27:28.310Z,26.13
2023-03-05T19:29:54.773Z,21.70
2023-03-05T19:32:24.221Z,25.33
2023-03-05T19:34:50.909Z,21.52
2023-03-05T19:37:18.305Z,24.83
2023-03-05T19:39:44.755Z,22.73
2023-03-05T19:42:11.227Z,24.15
2023-03-05T19:44:37.665Z,22.75
2023-03-05T19:47:04.240Z,31.40
2023-03-05T19:49:30.713Z,28.27
2023-03-05T19:51:57.209Z,24.95
2023-03-05T19:54:23.830Z,29.80
2023-03-05T19:56:52.331Z,24.05
2023-03-05T19:59:21.171Z,28.02
2023-03-05T20:01:51.335Z,27.00
2023-03-05T20:04:19.295Z,26.38
2023-03-05T20:06:46.204Z,29.10
2023-03-05T20:09:16.279Z,28.52
2023-03-05T20:11:42.902Z,31.63
2023-03-05T20:14:09.521Z,30.00
2023-03-05T20:16:38.020Z,30.55
2023-03-05T20:19:05.947Z,31.10
2023-03-05T20:21:34.955Z,32.83
2023-03-05T20:24:02.756Z,34.22
2023-03-05T20:26:29.661Z,33.70
2023-03-05T20:28:58.632Z,30.40
2023-03-05T20:31:26.406Z,31.83
2023-03-05T20:33:52.892Z,33.83
2023-03-05T20:36:19.351Z,37.45
2023-03-05T20:38:46.549Z,36.13
2023-03-05T20:41:14.603Z,35.05
2023-03-05T20:43:43.662Z,28.73
2023-03-05T20:46:23.720Z,26.77
2023-03-05T20:48:51.973Z,31.52
2023-03-05T20:51:22.640Z,30.48
2023-03-05T20:53:50.198Z,34.42
2023-03-05T20:56:19.145Z,29.35
2023-03-05T20:58:45.614Z,26.83
2023-03-05T21:01:12.059Z,33.45
2023-03-05T21:03:38.929Z,39.30
2023-03-05T21:06:05.832Z,33.70
2023-03-05T21:08:32.882Z,27.25
2023-03-05T21:10:59.811Z,32.85
2023-03-05T21:13:26.357Z,35.17
2023-03-05T21:15:52.726Z,37.25
2023-03-05T21:18:19.176Z,34.78
2023-03-05T21:20:45.537Z,33.25
2023-03-05T21:23:11.946Z,35.50
2023-03-05T21:25:38.538Z,35.05
2023-03-05T21:28:12.502Z,41.60
2023-03-05T21:30:41.990Z,46.17
2023-03-05T21:33:09.792Z,40.83
2023-03-05T21:35:36.696Z,32.00
2023-03-05T21:38:03.541Z,33.30
2023-03-05T21:40:30.534Z,29.42
2023-03-05T21:42:57.076Z,31.67
2023-03-05T21:45:24.955Z,31.33
2023-03-05T21:47:52.675Z,32.20
2023-03-05T21:50:22.516Z,32.65
2023-03-05T21:52:49.425Z,32.67
2023-03-05T21:55:17.276Z,27.80
2023-03-05T21:57:43.757Z,30.90
2023-03-05T22:00:12.234Z,34.08
2023-03-05T22:02:41.761Z,30.27
2023-03-05T22:05:13.419Z,35.10
2023-03-05T22:07:42.675Z,34.47
2023-03-05T22:10:12.876Z,31.73
2023-03-05T22:12:56.537Z,32.45
2023-03-05T22:15:23.357Z,35.78
2023-03-05T22:17:49.948Z,35.25
2023-03-05T22:20:16.540Z,34.97
2023-03-05T22:22:42.954Z,35.50
2023-03-05T22:25:12.647Z,30.58
2023-03-05T22:27:39.512Z,36.00
2023-03-05T22:30:06.242Z,28.75
2023-03-05T22:32:35.707Z,33.03
2023-03-05T22:35:03.041Z,31.10
2023-03-05T22:37:29.756Z,33.25
2023-03-05T22:39:56.588Z,28.65
2023-03-05T22:42:23.340Z,32.38
2023-03-05T22:44:49.690Z,31.25
2023-03-05T22:47:16.080Z,33.22
2023-03-05T22:49:42.410Z,32.95
2023-03-05T22:52:08.837Z,34.47
2023-03-05T22:54:35.182Z,33.13
2023-03-05T22:57:01.531Z,31.30
2023-03-05T22:59:28.565Z,33.20
2023-03-05T23:01:54.932Z,30.27
2023-03-05T23:04:42.993Z,31.33
2023-03-05T23:07:09.390Z,34.22
2023-03-05T23:09:35.913Z,28.02
2023-03-05T23:12:02.267Z,29.02
2023-03-05T23:14:28.675Z,31.00
2023-03-05T23:16:55.009Z,32.28
2023-03-05T23:19:23.877Z,30.65
2023-03-05T23:21:50.221Z,28.63
2023-03-05T23:24:16.714Z,37.08
2023-03-05T23:26:43.083Z,31.92
2023-03-05T23:29:09.454Z,39.60
2023-03-05T23:31:35.852Z,33.45
2023-03-05T23:34:02.299Z,29.65
2023-03-05T23:36:28.731Z,33.40
2023-03-05T23:38:57.935Z,38.40
2023-03-05T23:41:24.362Z,32.28
2023-03-05T23:43:50.778Z,32.75
2023-03-05T23:46:17.245Z,33.90
2023-03-05T23:48:43.704Z,32.85
2023-03-05T23:51:10.561Z,30.65
2023-03-05T23:53:37.183Z,30.02
2023-03-05T23:56:07.971Z,32.88
2023-03-05T23:58:35.160Z,35.63
